createdAt,value
2023-05-19T00:01:19.584Z,11.43
2023-05-19T00:03:54.254Z,10.65
2023-05-19T00:06:25.357Z,10.60
2023-05-19T00:08:59.780Z,10.20
2023-05-19T00:11:27.591Z,10.95
2023-05-19T00:13:55.455Z,11.85
2023-05-19T00:16:23.624Z,10.23
2023-05-19T00:18:51.789Z,10.40
2023-05-19T00:21:18.972Z,10.82
2023-05-19T00:23:46.174Z,10.65
2023-05-19T00:26:13.325Z,10.60
2023-05-19T00:28:40.493Z,10.70
2023-05-19T00:31:07.684Z,11.18
2023-05-19T00:33:35.009Z,10.18
2023-05-19T00:36:05.805Z,10.15
2023-05-19T00:38:33.688Z,10.35
2023-05-19T00:41:01.657Z,10.77
2023-05-19T00:43:30.153Z,9.40
2023-05-19T00:45:57.661Z,9.85
2023-05-19T00:48:25.663Z,8.82
2023-05-19T00:50:54.783Z,10.70
2023-05-19T00:53:22.367Z,9.20
2023-05-19T00:55:49.587Z,10.10
2023-05-19T00:58:16.774Z,9.75
2023-05-19T01:00:44.458Z,10.13
2023-05-19T01:03:11.842Z,9.18
2023-05-19T01:05:41.722Z,9.10
2023-05-19T01:08:09.228Z,9.23
2023-05-19T01:10:36.368Z,9.65
2023-05-19T01:13:04.419Z,8.63
2023-05-19T01:15:34.681Z,9.13
2023-05-19T01:18:16.910Z,9.48
2023-05-19T01:20:48.260Z,9.02
2023-05-19T01:23:36.723Z,8.05
2023-05-19T01:26:07.100Z,8.38
2023-05-19T01:28:40.378Z,8.38
2023-05-19T01:31:09.631Z,8.10
2023-05-19T01:33:37.624Z,7.05
2023-05-19T01:36:04.902Z,8.02
2023-05-19T01:38:33.724Z,7.20
2023-05-19T01:41:01.470Z,7.35
2023-05-19T01:43:28.979Z,6.82
2023-05-19T01:45:58.790Z,6.50
2023-05-19T01:48:27.718Z,7.27
2023-05-19T01:50:57.295Z,6.60
2023-05-19T01:53:24.845Z,7.60
2023-05-19T01:55:52.907Z,7.50
2023-05-19T01:58:38.562Z,6.38
2023-05-19T02:01:14.819Z,6.40
2023-05-19T02:03:51.247Z,6.72
2023-05-19T02:06:21.379Z,7.45
2023-05-19T02:08:53.131Z,6.47
2023-05-19T02:11:25.895Z,7.13
2023-05-19T02:13:54.270Z,6.60
2023-05-19T02:16:22.693Z,6.18
2023-05-19T02:18:53.808Z,6.85
2023-05-19T02:21:21.088Z,6.90
2023-05-19T02:23:48.648Z,7.38
2023-05-19T02:26:15.784Z,6.50
2023-05-19T02:28:42.926Z,6.97
2023-05-19T02:31:10.157Z,6.75
2023-05-19T02:33:37.490Z,6.72
2023-05-19T02:36:04.795Z,5.97
2023-05-19T02:38:32.606Z,6.53
2023-05-19T02:40:59.777Z,6.35
2023-05-19T02:43:26.984Z,6.93
2023-05-19T02:45:54.097Z,6.78
2023-05-19T02:48:21.201Z,6.35
2023-05-19T02:50:48.419Z,6.45
2023-05-19T02:53:15.531Z,6.47
2023-05-19T02:55:43.073Z,5.75
2023-05-19T02:58:10.809Z,5.85
2023-05-19T03:00:37.913Z,6.80
2023-05-19T03:03:05.088Z,5.78
2023-05-19T03:05:32.261Z,6.40
2023-05-19T03:07:59.388Z,6.45
2023-05-19T03:10:26.470Z,6.50
2023-05-19T03:12:53.637Z,6.30
2023-05-19T03:15:23.188Z,6.07
2023-05-19T03:17:50.543Z,5.95
2023-05-19T03:20:17.897Z,6.03
2023-05-19T03:22:45.182Z,5.95
2023-05-19T03:25:12.402Z,5.63
2023-05-19T03:27:39.775Z,6.30
2023-05-19T03:30:07.234Z,5.65
2023-05-19T03:32:37.856Z,5.45
2023-05-19T03:35:05.965Z,6.10
2023-05-19T03:37:33.403Z,5.93
2023-05-19T03:40:00.878Z,6.07
2023-05-19T03:42:28.095Z,5.88
2023-05-19T03:44:55.273Z,6.20
2023-05-19T03:47:22.440Z,6.40
2023-05-19T03:49:49.553Z,5.78
2023-05-19T03:52:17.035Z,6.15
2023-05-19T03:54:44.952Z,5.93
2023-05-19T03:57:12.128Z,5.32
2023-05-19T03:59:41.279Z,6.05
2023-05-19T04:02:08.599Z,6.28
2023-05-19T04:04:37.406Z,5.78
2023-05-19T04:07:04.617Z,5.90
2023-05-19T04:09:35.113Z,6.15
2023-05-19T04:12:05.931Z,6.63
2023-05-19T04:14:33.165Z,6.15
2023-05-19T04:17:00.368Z,6.13
2023-05-19T04:19:27.711Z,5.82
2023-05-19T04:21:54.914Z,6.15
2023-05-19T04:24:22.017Z,5.47
2023-05-19T04:26:49.355Z,6.03
2023-05-19T04:29:18.269Z,5.85
2023-05-19T04:31:45.903Z,5.70
2023-05-19T04:34:13.294Z,6.15
2023-05-19T04:36:40.473Z,5.78
2023-05-19T04:39:12.043Z,6.40
2023-05-19T04:41:44.671Z,5.97
2023-05-19T04:44:13.716Z,5.55
2023-05-19T04:46:42.720Z,5.65
2023-05-19T04:49:12.537Z,6.10
2023-05-19T04:51:41.515Z,6.18
2023-05-19T04:54:10.039Z,5.45
2023-05-19T04:56:37.491Z,5.40
2023-05-19T04:59:04.640Z,5.75
2023-05-19T05:01:32.979Z,5.88
2023-05-19T05:04:02.502Z,5.05
2023-05-19T05:06:31.629Z,5.30
2023-05-19T05:08:59.920Z,5.78
2023-05-19T05:11:27.318Z,5.55
2023-05-19T05:13:57.888Z,5.38
2023-05-19T05:16:25.247Z,5.72
2023-05-19T05:18:52.834Z,5.78
2023-05-19T05:21:20.154Z,5.20
2023-05-19T05:23:47.406Z,5.82
2023-05-19T05:26:28.625Z,5.00
2023-05-19T05:28:56.022Z,5.32
2023-05-19T05:31:23.112Z,5.53
2023-05-19T05:33:50.489Z,6.30
2023-05-19T05:36:17.584Z,6.22
2023-05-19T05:38:44.662Z,5.60
2023-05-19T05:41:11.939Z,5.97
2023-05-19T05:43:39.037Z,6.00
2023-05-19T05:46:06.296Z,5.80
2023-05-19T05:48:33.746Z,5.97
2023-05-19T05:51:01.261Z,5.78
2023-05-19T05:53:30.905Z,5.30
2023-05-19T05:55:58.276Z,6.00
2023-05-19T05:58:25.885Z,5.75
2023-05-19T06:00:57.570Z,5.95
2023-05-19T06:03:25.022Z,5.13
2023-05-19T06:05:52.293Z,5.82
2023-05-19T06:08:19.492Z,5.85
2023-05-19T06:10:47.447Z,5.18
2023-05-19T06:13:17.862Z,5.75
2023-05-19T06:15:45.082Z,5.50
2023-05-19T06:18:12.353Z,5.90
2023-05-19T06:20:39.505Z,6.40
2023-05-19T06:23:06.649Z,5.68
2023-05-19T06:25:34.029Z,5.90
2023-05-19T06:28:01.926Z,5.30
2023-05-19T06:30:29.063Z,5.88
2023-05-19T06:32:56.624Z,5.65
2023-05-19T06:35:23.823Z,6.07
2023-05-19T06:37:50.958Z,5.82
2023-05-19T06:40:18.254Z,6.05
2023-05-19T06:42:45.372Z,6.00
2023-05-19T06:45:12.558Z,5.45
2023-05-19T06:47:42.374Z,6.70
2023-05-19T06:50:10.243Z,5.72
2023-05-19T06:52:37.426Z,6.05
2023-05-19T06:55:04.707Z,5.82
2023-05-19T06:57:31.791Z,5.90
2023-05-19T06:59:58.893Z,5.53
2023-05-19T07:02:26.076Z,6.45
2023-05-19T07:04:54.005Z,5.72
2023-05-19T07:07:21.227Z,5.82
2023-05-19T07:09:48.395Z,6.45
2023-05-19T07:12:15.614Z,5.75
2023-05-19T07:14:42.690Z,6.20
2023-05-19T07:17:09.977Z,5.78
2023-05-19T07:19:37.067Z,5.85
2023-05-19T07:22:04.239Z,5.70
2023-05-19T07:24:31.640Z,5.75
2023-05-19T07:26:58.882Z,5.82
2023-05-19T07:29:26.190Z,5.68
2023-05-19T07:31:57.739Z,6.35
2023-05-19T07:34:25.361Z,6.10
2023-05-19T07:36:52.660Z,6.28
2023-05-19T07:39:20.153Z,6.63
2023-05-19T07:41:52.660Z,7.07
2023-05-19T07:44:19.926Z,7.15
2023-05-19T07:46:47.385Z,6.80
2023-05-19T07:49:14.492Z,7.20
2023-05-19T07:51:42.055Z,6.63
2023-05-19T07:54:09.243Z,6.63
2023-05-19T07:56:36.439Z,7.13
2023-05-19T07:59:04.777Z,6.50
2023-05-19T08:01:32.465Z,7.28
2023-05-19T08:03:59.800Z,6.53
2023-05-19T08:06:26.967Z,6.57
2023-05-19T08:08:54.319Z,6.90
2023-05-19T08:11:21.593Z,7.00
2023-05-19T08:13:49.321Z,6.13
2023-05-19T08:16:16.847Z,5.97
2023-05-19T08:18:44.110Z,6.13
2023-05-19T08:21:11.755Z,6.35
2023-05-19T08:23:38.949Z,6.60
2023-05-19T08:26:06.179Z,5.93
2023-05-19T08:28:33.376Z,6.65
2023-05-19T08:31:01.090Z,6.43
2023-05-19T08:33:28.281Z,6.25
2023-05-19T08:35:58.136Z,6.13
2023-05-19T08:38:26.532Z,6.35
2023-05-19T08:40:53.840Z,6.43
2023-05-19T08:43:21.122Z,5.55
2023-05-19T08:45:48.413Z,6.03
2023-05-19T08:48:17.446Z,6.22
2023-05-19T08:50:47.471Z,6.28
2023-05-19T08:53:32.376Z,6.25
2023-05-19T08:56:12.266Z,6.00
2023-05-19T08:58:41.370Z,5.70
2023-05-19T09:01:08.782Z,6.25
2023-05-19T09:03:38.124Z,6.63
2023-05-19T09:06:09.010Z,6.18
2023-05-19T09:08:37.206Z,6.65
2023-05-19T09:11:04.604Z,7.43
2023-05-19T09:13:31.871Z,7.18
2023-05-19T09:15:59.274Z,7.97
2023-05-19T09:18:26.860Z,7.22
2023-05-19T09:21:02.383Z,8.18
2023-05-19T09:23:30.650Z,7.90
2023-05-19T09:25:57.929Z,7.70
2023-05-19T09:28:25.332Z,8.50
2023-05-19T09:31:02.160Z,8.20
2023-05-19T09:33:29.690Z,8.52
2023-05-19T09:35:57.048Z,8.18
2023-05-19T09:38:27.642Z,7.25
2023-05-19T09:43:22.154Z,7.47
2023-05-19T09:45:49.979Z,7.45
2023-05-19T09:48:17.151Z,8.35
2023-05-19T09:50:45.622Z,7.20
2023-05-19T09:53:15.579Z,7.43
2023-05-19T09:55:42.934Z,7.30
2023-05-19T09:58:12.752Z,7.40
2023-05-19T10:00:40.497Z,6.88
2023-05-19T10:03:07.812Z,6.80
2023-05-19T10:05:35.609Z,7.18
2023-05-19T10:08:04.529Z,6.25
2023-05-19T10:10:31.878Z,7.22
2023-05-19T10:13:00.158Z,7.60
2023-05-19T10:15:27.285Z,8.10
2023-05-19T10:17:54.776Z,8.35
2023-05-19T10:20:21.982Z,7.95
2023-05-19T10:22:49.305Z,8.20
2023-05-19T10:25:18.563Z,9.13
2023-05-19T10:27:48.432Z,8.73
2023-05-19T10:30:16.962Z,8.27
2023-05-19T10:32:46.554Z,10.23
2023-05-19T10:35:26.164Z,7.65
2023-05-19T10:38:13.621Z,6.85
2023-05-19T10:40:56.024Z,6.30
2023-05-19T10:43:23.204Z,6.63
2023-05-19T10:45:52.987Z,6.28
2023-05-19T10:48:21.921Z,7.00
2023-05-19T10:50:49.300Z,6.05
2023-05-19T10:53:22.495Z,5.75
2023-05-19T10:55:55.985Z,5.97
2023-05-19T10:58:39.469Z,5.13
2023-05-19T11:01:10.375Z,4.82
2023-05-19T11:03:45.533Z,5.57
2023-05-19T11:06:18.780Z,5.50
2023-05-19T11:08:47.807Z,6.07
2023-05-19T11:11:18.190Z,6.55
2023-05-19T11:13:49.303Z,7.13
2023-05-19T11:16:19.490Z,6.60
2023-05-19T11:18:50.670Z,7.55
2023-05-19T11:21:20.675Z,6.80
2023-05-19T11:23:47.904Z,7.53
2023-05-19T11:26:15.172Z,7.28
2023-05-19T11:28:42.496Z,8.10
2023-05-19T11:31:10.388Z,7.72
2023-05-19T11:33:38.005Z,7.72
2023-05-19T11:36:05.765Z,8.00
2023-05-19T11:38:33.415Z,7.85
2023-05-19T11:41:01.450Z,8.25
2023-05-19T11:43:28.600Z,8.43
2023-05-19T11:45:56.365Z,8.18
2023-05-19T11:48:23.955Z,7.60
2023-05-19T11:50:51.334Z,7.20
2023-05-19T11:53:19.594Z,7.43
2023-05-19T11:55:47.855Z,7.47
2023-05-19T11:58:15.282Z,7.93
2023-05-19T12:00:45.799Z,6.43
2023-05-19T12:03:13.266Z,6.00
2023-05-19T12:05:44.901Z,6.50
2023-05-19T12:08:13.033Z,6.82
2023-05-19T12:10:40.578Z,6.60
2023-05-19T12:13:11.010Z,6.53
2023-05-19T12:15:38.909Z,7.47
2023-05-19T12:18:06.865Z,6.65
2023-05-19T12:20:35.746Z,7.65
2023-05-19T12:23:03.718Z,7.25
2023-05-19T12:25:32.042Z,6.65
2023-05-19T12:28:03.065Z,7.22
2023-05-19T12:30:31.348Z,7.20
2023-05-19T12:32:59.156Z,7.50
2023-05-19T12:35:30.701Z,7.57
2023-05-19T12:37:57.947Z,8.05
2023-05-19T12:40:26.233Z,7.47
2023-05-19T12:42:59.008Z,7.60
2023-05-19T12:45:28.361Z,8.27
2023-05-19T12:47:56.061Z,7.13
2023-05-19T12:50:30.318Z,7.63
2023-05-19T12:52:59.524Z,8.32
2023-05-19T12:55:26.665Z,6.97
2023-05-19T12:57:56.877Z,7.72
2023-05-19T13:00:27.682Z,7.60
2023-05-19T13:05:22.978Z,7.35
2023-05-19T13:08:00.368Z,7.82
2023-05-19T13:10:27.880Z,8.52
2023-05-19T13:13:00.198Z,8.23
2023-05-19T13:15:28.386Z,7.65
2023-05-19T13:17:55.545Z,7.78
2023-05-19T13:20:22.743Z,8.30
2023-05-19T13:22:50.273Z,7.47
2023-05-19T13:25:17.863Z,8.57
2023-05-19T13:27:45.930Z,8.48
2023-05-19T13:30:13.575Z,8.23
2023-05-19T13:32:40.716Z,8.23
2023-05-19T13:35:08.065Z,9.05
2023-05-19T13:37:35.304Z,9.05
2023-05-19T13:40:02.867Z,9.02
2023-05-19T13:42:29.976Z,9.48
2023-05-19T13:44:57.346Z,10.75
2023-05-19T13:47:24.838Z,9.60
2023-05-19T13:49:52.260Z,10.18
2023-05-19T13:52:20.661Z,9.60
2023-05-19T13:54:48.508Z,11.05
2023-05-19T13:57:16.010Z,10.07
2023-05-19T13:59:53.480Z,10.32
2023-05-19T14:02:27.898Z,11.60
2023-05-19T14:04:55.925Z,10.77
2023-05-19T14:07:23.097Z,11.00
2023-05-19T14:09:51.176Z,11.93
2023-05-19T14:12:19.333Z,11.48
2023-05-19T14:14:49.046Z,11.27
2023-05-19T14:17:16.322Z,11.45
2023-05-19T14:19:43.464Z,11.52
2023-05-19T14:22:10.637Z,11.88
2023-05-19T14:24:37.756Z,11.55
2023-05-19T14:27:05.012Z,11.00
2023-05-19T14:29:32.179Z,11.85
2023-05-19T14:32:00.740Z,12.45
2023-05-19T14:34:28.048Z,12.30
2023-05-19T14:36:55.248Z,12.77
2023-05-19T14:39:22.362Z,11.48
2023-05-19T14:41:51.064Z,11.88
2023-05-19T14:44:18.178Z,11.15
2023-05-19T14:46:45.408Z,10.88
2023-05-19T14:49:12.643Z,11.50
2023-05-19T14:51:39.776Z,10.27
2023-05-19T14:54:06.905Z,11.43
2023-05-19T14:56:34.046Z,10.95
2023-05-19T14:59:01.149Z,11.05
2023-05-19T15:01:28.327Z,10.95
2023-05-19T15:03:55.621Z,11.60
2023-05-19T15:06:23.529Z,10.38
2023-05-19T15:08:50.958Z,11.27
2023-05-19T15:11:18.091Z,11.32
2023-05-19T15:13:45.351Z,11.55
2023-05-19T15:16:16.950Z,9.98
2023-05-19T15:18:51.505Z,10.45
2023-05-19T15:21:18.723Z,10.40
2023-05-19T15:23:45.994Z,10.60
2023-05-19T15:26:13.309Z,10.48
2023-05-19T15:28:40.690Z,11.05
2023-05-19T15:31:08.044Z,11.23
2023-05-19T15:33:35.408Z,10.32
2023-05-19T15:36:02.537Z,10.25
2023-05-19T15:38:30.551Z,11.10
2023-05-19T15:40:57.899Z,10.75
2023-05-19T15:43:25.279Z,11.10
2023-05-19T15:45:55.028Z,10.27
2023-05-19T15:48:22.469Z,10.20
2023-05-19T15:50:49.619Z,11.40
2023-05-19T15:53:16.780Z,10.52
2023-05-19T15:55:43.971Z,10.68
2023-05-19T15:58:11.115Z,9.73
2023-05-19T16:00:38.234Z,10.13
2023-05-19T16:03:05.432Z,10.43
2023-05-19T16:05:32.603Z,10.55
2023-05-19T16:07:59.794Z,11.00
2023-05-19T16:10:27.001Z,10.77
2023-05-19T16:12:54.098Z,10.55
2023-05-19T16:15:21.208Z,10.55
2023-05-19T16:17:48.565Z,11.65
2023-05-19T16:20:15.831Z,11.52
2023-05-19T16:22:42.947Z,11.15
2023-05-19T16:25:10.378Z,11.13
2023-05-19T16:27:37.482Z,10.32
2023-05-19T16:30:05.652Z,10.32
2023-05-19T16:32:33.733Z,11.43
2023-05-19T16:35:00.936Z,11.48
2023-05-19T16:37:28.037Z,10.32
2023-05-19T16:39:55.185Z,11.00
2023-05-19T16:42:22.877Z,10.93
2023-05-19T16:44:50.039Z,11.45
2023-05-19T16:47:17.633Z,10.65
2023-05-19T16:49:44.757Z,10.25
2023-05-19T16:52:11.931Z,10.23
2023-05-19T16:54:39.145Z,10.35
2023-05-19T16:57:06.296Z,10.63
2023-05-19T16:59:33.411Z,10.90
2023-05-19T17:02:00.885Z,10.02
2023-05-19T17:04:30.046Z,9.98
2023-05-19T17:06:57.932Z,9.98
2023-05-19T17:09:26.317Z,9.65
2023-05-19T17:11:54.034Z,9.45
2023-05-19T17:14:21.995Z,10.10
2023-05-19T17:16:49.320Z,10.43
2023-05-19T17:19:16.881Z,9.60
2023-05-19T17:21:44.225Z,8.77
2023-05-19T17:24:11.483Z,9.45
2023-05-19T17:26:38.654Z,9.50
2023-05-19T17:29:05.950Z,9.05
2023-05-19T17:31:33.140Z,8.80
2023-05-19T17:34:00.263Z,8.38
2023-05-19T17:36:27.377Z,8.57
2023-05-19T17:38:54.636Z,9.32
2023-05-19T17:41:21.989Z,9.15
2023-05-19T17:43:49.107Z,9.38
2023-05-19T17:46:16.315Z,8.75
2023-05-19T17:48:43.824Z,8.55
2023-05-19T17:51:11.408Z,8.85
2023-05-19T17:53:38.820Z,7.97
2023-05-19T17:56:08.772Z,8.02
2023-05-19T17:58:36.314Z,8.95
2023-05-19T18:01:03.557Z,8.23
2023-05-19T18:03:31.384Z,8.32
2023-05-19T18:05:59.406Z,8.48
2023-05-19T18:08:26.843Z,7.28
2023-05-19T18:10:55.712Z,7.88
2023-05-19T18:13:23.600Z,8.30
2023-05-19T18:15:52.601Z,7.97
2023-05-19T18:18:19.797Z,8.57
2023-05-19T18:20:47.519Z,8.55
2023-05-19T18:23:14.755Z,7.65
2023-05-19T18:25:41.890Z,8.55
2023-05-19T18:28:09.082Z,8.25
2023-05-19T18:30:36.309Z,8.32
2023-05-19T18:33:04.212Z,8.65
2023-05-19T18:35:31.477Z,8.25
2023-05-19T18:37:58.687Z,8.27
2023-05-19T18:40:25.921Z,7.90
2023-05-19T18:42:53.066Z,8.45
2023-05-19T18:45:20.551Z,8.13
2023-05-19T18:47:47.701Z,8.23
2023-05-19T18:50:14.952Z,8.02
2023-05-19T18:52:42.082Z,8.27
2023-05-19T18:55:09.419Z,8.23
2023-05-19T18:57:36.761Z,8.27
2023-05-19T19:00:04.335Z,8.45
2023-05-19T19:02:31.648Z,7.93
2023-05-19T19:04:58.996Z,8.98
2023-05-19T19:07:27.794Z,7.80
2023-05-19T19:09:54.930Z,8.27
2023-05-19T19:12:22.048Z,8.38
2023-05-19T19:14:49.316Z,8.57
2023-05-19T19:17:16.491Z,8.55
2023-05-19T19:19:43.704Z,8.40
2023-05-19T19:22:10.900Z,8.25
2023-05-19T19:24:38.045Z,8.95
2023-05-19T19:27:05.322Z,8.52
2023-05-19T19:29:32.518Z,9.57
2023-05-19T19:31:59.713Z,9.05
2023-05-19T19:34:26.874Z,8.70
2023-05-19T19:36:54.093Z,8.90
2023-05-19T19:39:21.384Z,9.15
2023-05-19T19:41:48.488Z,8.63
2023-05-19T19:44:15.712Z,8.82
2023-05-19T19:46:42.844Z,9.35
2023-05-19T19:49:10.090Z,9.07
2023-05-19T19:51:37.528Z,8.75
2023-05-19T19:54:04.680Z,10.25
2023-05-19T19:56:31.813Z,9.55
2023-05-19T19:58:59.383Z,9.25
2023-05-19T20:01:27.342Z,9.30
2023-05-19T20:03:55.019Z,10.20
2023-05-19T20:06:22.307Z,9.82
2023-05-19T20:08:49.786Z,9.73
2023-05-19T20:11:17.208Z,9.00
2023-05-19T20:13:44.423Z,9.13
2023-05-19T20:16:11.646Z,9.18
2023-05-19T20:18:39.610Z,8.63
2023-05-19T20:21:06.909Z,8.98
2023-05-19T20:23:34.012Z,8.10
2023-05-19T20:26:11.915Z,8.43
2023-05-19T20:28:40.312Z,9.68
2023-05-19T20:31:07.809Z,10.43
2023-05-19T20:33:35.133Z,9.10
2023-05-19T20:36:02.325Z,9.40
2023-05-19T20:38:29.497Z,8.55
2023-05-19T20:40:56.578Z,9.05
2023-05-19T20:43:23.733Z,8.60
2023-05-19T20:45:51.384Z,9.27
2023-05-19T20:48:18.695Z,8.07
2023-05-19T20:50:45.922Z,8.82
2023-05-19T20:53:13.042Z,9.25
2023-05-19T20:55:40.322Z,8.65
2023-05-19T20:58:07.533Z,8.50
2023-05-19T21:00:34.876Z,9.02
2023-05-19T21:03:02.271Z,9.10
2023-05-19T21:05:29.614Z,8.80
2023-05-19T21:07:57.003Z,8.73
2023-05-19T21:10:24.301Z,8.20
2023-05-19T21:12:51.475Z,8.93
2023-05-19T21:15:18.800Z,9.63
2023-05-19T21:17:46.736Z,9.10
2023-05-19T21:20:14.019Z,9.50
2023-05-19T21:22:41.150Z,9.75
2023-05-19T21:25:08.453Z,9.32
2023-05-19T21:27:36.360Z,9.23
2023-05-19T21:30:03.538Z,9.52
2023-05-19T21:32:30.743Z,9.45
2023-05-19T21:34:57.905Z,9.30
2023-05-19T21:37:25.093Z,9.77
2023-05-19T21:39:52.275Z,9.88
2023-05-19T21:42:19.465Z,9.52
2023-05-19T21:44:46.571Z,9.57
2023-05-19T21:47:13.706Z,9.68
2023-05-19T21:49:40.896Z,9.18
2023-05-19T21:52:08.279Z,8.88
2023-05-19T21:54:36.151Z,8.68
2023-05-19T21:57:03.444Z,8.65
2023-05-19T21:59:30.547Z,9.43
2023-05-19T22:01:58.336Z,9.27
2023-05-19T22:04:25.638Z,9.25
2023-05-19T22:06:52.812Z,10.32
2023-05-19T22:09:19.931Z,8.85
2023-05-19T22:11:47.158Z,9.20
2023-05-19T22:14:14.604Z,9.65
2023-05-19T22:16:41.820Z,9.07
2023-05-19T22:19:10.479Z,9.80
2023-05-19T22:21:37.758Z,9.68
2023-05-19T22:24:04.903Z,9.75
2023-05-19T22:26:32.066Z,9.45
2023-05-19T22:28:59.168Z,9.32
2023-05-19T22:31:26.259Z,9.93
2023-05-19T22:33:53.474Z,9.07
2023-05-19T22:36:20.638Z,9.20
2023-05-19T22:38:47.824Z,8.57
2023-05-19T22:41:14.993Z,9.05
2023-05-19T22:43:42.094Z,9.35
2023-05-19T22:46:09.262Z,8.82
2023-05-19T22:48:36.413Z,9.48
2023-05-19T22:51:03.582Z,10.05
2023-05-19T22:53:30.742Z,8.93
2023-05-19T22:55:57.857Z,9.57
2023-05-19T22:58:24.959Z,9.27
2023-05-19T23:00:52.116Z,9.75
2023-05-19T23:03:19.375Z,9.38
2023-05-19T23:05:46.528Z,9.82
2023-05-19T23:08:13.644Z,9.25
2023-05-19T23:10:40.806Z,9.57
2023-05-19T23:13:09.524Z,8.80
2023-05-19T23:15:36.658Z,9.95
2023-05-19T23:18:07.282Z,8.70
2023-05-19T23:20:34.870Z,9.30
2023-05-19T23:23:02.336Z,9.25
2023-05-19T23:25:29.556Z,8.25
2023-05-19T23:27:56.637Z,8.65
2023-05-19T23:30:23.737Z,8.77
2023-05-19T23:32:51.051Z,8.68
2023-05-19T23:35:18.413Z,8.57
2023-05-19T23:37:45.546Z,8.30
2023-05-19T23:40:13.281Z,8.45
2023-05-19T23:42:40.484Z,9.32
2023-05-19T23:45:07.954Z,10.00
2023-05-19T23:47:35.199Z,9.55
2023-05-19T23:50:02.595Z,8.48
2023-05-19T23:52:29.841Z,8.93
2023-05-19T23:54:56.959Z,8.55
2023-05-19T23:57:24.054Z,8.80
2023-05-19T23:59:51.141Z,9.25
